createdAt,value
2022-08-18T00:09:59.740Z,4.68
2022-08-18T00:20:04.081Z,3.57
2022-08-18T00:30:10.625Z,3.55
2022-08-18T00:40:17.918Z,3.47
2022-08-18T00:50:28.963Z,2.92
2022-08-18T01:00:31.758Z,3.37
2022-08-18T01:10:34.749Z,3.60
2022-08-18T01:21:04.214Z,3.25
2022-08-18T01:31:09.438Z,3.80
2022-08-18T01:41:27.027Z,3.85
2022-08-18T01:51:40.097Z,3.78
2022-08-18T02:01:53.105Z,3.53
2022-08-18T02:11:56.610Z,3.20
2022-08-18T02:21:59.023Z,3.72
2022-08-18T02:32:02.183Z,3.90
2022-08-18T02:42:08.254Z,4.28
2022-08-18T02:52:11.050Z,4.87
2022-08-18T03:02:14.099Z,3.92
2022-08-18T03:12:16.541Z,4.18
2022-08-18T03:22:28.513Z,4.00
2022-08-18T03:32:32.246Z,3.80
2022-08-18T03:42:34.839Z,3.42
2022-08-18T03:52:41.824Z,4.28
2022-08-18T04:02:44.683Z,4.50
2022-08-18T04:12:47.407Z,5.82
2022-08-18T04:22:50.128Z,4.32
2022-08-18T04:32:53.179Z,4.40
2022-08-18T04:42:56.570Z,4.60
2022-08-18T04:53:17.396Z,5.13
2022-08-18T05:03:20.964Z,5.07
2022-08-18T05:13:26.313Z,3.60
2022-08-18T05:23:30.148Z,4.30
2022-08-18T05:43:45.963Z,4.47
2022-08-18T05:54:16.865Z,4.10
2022-08-18T06:04:38.380Z,3.92
2022-08-18T06:14:42.858Z,4.60
2022-08-18T06:25:33.198Z,4.35
2022-08-18T06:35:46.377Z,4.80
2022-08-18T06:56:37.857Z,5.07
2022-08-18T07:06:41.989Z,5.60
2022-08-18T07:17:17.748Z,4.47
2022-08-18T07:27:42.668Z,4.15
2022-08-18T07:38:41.411Z,4.75
2022-08-18T07:49:06.768Z,4.60
2022-08-18T08:10:36.991Z,5.40
2022-08-18T08:20:49.593Z,4.50
2022-08-18T08:41:30.077Z,4.80
2022-08-18T08:51:45.508Z,5.70
2022-08-18T09:02:32.008Z,5.45
2022-08-18T09:13:29.244Z,5.95
2022-08-18T09:23:43.177Z,5.37
2022-08-18T09:34:49.920Z,5.90
2022-08-18T09:44:57.572Z,5.78
2022-08-18T10:06:07.142Z,4.82
2022-08-18T10:16:31.170Z,4.20
2022-08-18T10:27:14.715Z,3.83
2022-08-18T10:37:45.273Z,3.55
2022-08-18T10:48:26.937Z,3.75
2022-08-18T10:59:28.885Z,3.65
2022-08-18T11:09:34.560Z,4.00
2022-08-18T11:19:46.334Z,4.80
2022-08-18T11:30:05.893Z,3.40
2022-08-18T11:40:22.551Z,3.42
2022-08-18T12:01:54.055Z,4.28
2022-08-18T12:12:01.651Z,4.37
2022-08-18T12:22:18.950Z,4.40
2022-08-18T12:32:49.596Z,5.53
2022-08-18T12:43:05.740Z,4.57
2022-08-18T13:04:21.536Z,4.15
2022-08-18T13:14:30.414Z,4.22
2022-08-18T13:24:38.540Z,4.05
2022-08-18T13:34:49.909Z,3.47
2022-08-18T13:55:30.991Z,3.55
2022-08-18T14:05:36.894Z,3.12
2022-08-18T14:15:58.378Z,3.00
2022-08-18T14:26:20.718Z,3.70
2022-08-18T14:36:30.218Z,3.57
2022-08-18T14:46:33.895Z,3.00
2022-08-18T14:56:39.103Z,3.45
2022-08-18T15:06:56.746Z,3.62
2022-08-18T15:17:13.290Z,2.70
2022-08-18T15:27:19.678Z,3.42
2022-08-18T15:37:43.587Z,3.37
2022-08-18T15:47:48.518Z,3.20
2022-08-18T15:57:53.312Z,3.30
2022-08-18T16:08:01.718Z,3.42
2022-08-18T16:18:07.449Z,2.83
2022-08-18T16:28:15.122Z,3.47
2022-08-18T16:38:20.504Z,2.70
2022-08-18T16:48:28.318Z,2.90
2022-08-18T16:58:50.939Z,2.80
2022-08-18T17:08:55.253Z,3.10
2022-08-18T17:19:00.549Z,3.00
2022-08-18T17:29:16.187Z,2.95
2022-08-18T17:39:24.875Z,3.15
2022-08-18T17:50:00.155Z,2.85
2022-08-18T18:00:19.159Z,3.00
2022-08-18T18:10:30.418Z,3.05
2022-08-18T18:20:42.747Z,3.10
2022-08-18T18:30:47.603Z,3.08
2022-08-18T18:41:13.755Z,2.60
2022-08-18T18:51:33.854Z,3.00
2022-08-18T19:02:01.249Z,3.12
2022-08-18T19:12:26.294Z,2.65
2022-08-18T19:22:45.057Z,2.90
2022-08-18T19:32:58.505Z,2.97
2022-08-18T19:43:11.688Z,2.97
2022-08-18T19:53:45.833Z,2.47
2022-08-18T20:04:39.183Z,2.70
2022-08-18T20:14:44.248Z,2.90
2022-08-18T20:25:05.975Z,2.70
2022-08-18T20:35:25.167Z,2.58
2022-08-18T20:45:35.219Z,2.40
2022-08-18T20:56:02.297Z,2.65
2022-08-18T21:06:37.912Z,3.10
2022-08-18T21:16:45.563Z,2.80
2022-08-18T21:26:49.025Z,3.00
2022-08-18T21:36:54.234Z,2.78
2022-08-18T21:47:07.105Z,3.50
2022-08-18T21:57:28.708Z,4.20
2022-08-18T22:07:35.885Z,3.22
2022-08-18T22:17:51.062Z,3.70
2022-08-18T22:27:57.559Z,2.50
2022-08-18T22:38:01.729Z,2.80
2022-08-18T22:48:04.944Z,1.87
2022-08-18T22:58:08.266Z,2.17
2022-08-18T23:08:13.200Z,1.85
2022-08-18T23:18:19.992Z,1.77
2022-08-18T23:28:24.980Z,2.20
2022-08-18T23:38:31.758Z,2.08
2022-08-18T23:48:35.147Z,2.37
2022-08-18T23:58:37.964Z,1.73
